createdAt,value
2018-07-26T00:01:32.484Z,25.90
2018-07-26T00:03:59.403Z,25.90
2018-07-26T00:06:27.046Z,25.80
2018-07-26T00:08:54.082Z,25.80
2018-07-26T00:11:21.086Z,25.80
2018-07-26T00:13:47.950Z,25.70
2018-07-26T00:16:14.693Z,25.70
2018-07-26T00:18:41.558Z,25.70
2018-07-26T00:21:08.508Z,25.70
2018-07-26T00:23:35.402Z,25.70
2018-07-26T00:26:02.960Z,25.70
2018-07-26T00:28:29.938Z,25.70
2018-07-26T00:30:56.772Z,25.60
2018-07-26T00:33:23.775Z,25.60
2018-07-26T00:35:50.544Z,25.60
2018-07-26T00:38:17.383Z,25.60
2018-07-26T00:40:44.190Z,25.60
2018-07-26T00:43:11.028Z,25.50
2018-07-26T00:45:37.787Z,25.50
2018-07-26T00:48:04.628Z,25.50
2018-07-26T00:50:31.485Z,25.50
2018-07-26T00:52:58.269Z,25.50
2018-07-26T00:55:25.417Z,25.50
2018-07-26T00:57:52.599Z,25.50
2018-07-26T01:00:19.351Z,25.40
2018-07-26T01:02:46.093Z,25.40
2018-07-26T01:05:12.747Z,25.40
2018-07-26T01:10:06.989Z,25.30
2018-07-26T01:12:34.321Z,25.30
2018-07-26T01:15:01.262Z,25.30
2018-07-26T01:17:27.899Z,25.30
2018-07-26T01:19:54.592Z,25.30
2018-07-26T01:22:21.287Z,25.20
2018-07-26T01:24:48.218Z,25.20
2018-07-26T01:27:15.518Z,25.20
2018-07-26T01:29:42.409Z,25.20
2018-07-26T01:32:09.340Z,25.20
2018-07-26T01:34:36.114Z,25.20
2018-07-26T01:37:02.820Z,25.20
2018-07-26T01:39:29.556Z,25.10
2018-07-26T01:41:56.324Z,25.10
2018-07-26T01:44:24.200Z,24.90
2018-07-26T01:46:50.954Z,25.10
2018-07-26T01:49:18.040Z,25.10
2018-07-26T01:51:44.798Z,25.10
2018-07-26T01:54:12.729Z,25.00
2018-07-26T01:56:39.604Z,25.00
2018-07-26T01:59:06.436Z,25.00
2018-07-26T02:01:33.206Z,25.00
2018-07-26T02:03:59.959Z,24.70
2018-07-26T02:08:53.913Z,25.00
2018-07-26T02:11:20.556Z,25.00
2018-07-26T02:13:47.372Z,24.90
2018-07-26T02:16:14.228Z,24.90
2018-07-26T02:18:41.089Z,24.90
2018-07-26T02:21:07.861Z,24.90
2018-07-26T02:23:34.592Z,24.90
2018-07-26T02:26:01.313Z,24.90
2018-07-26T02:28:28.034Z,24.80
2018-07-26T02:30:54.848Z,24.80
2018-07-26T02:33:21.707Z,24.80
2018-07-26T02:35:48.414Z,24.80
2018-07-26T02:38:15.435Z,24.80
2018-07-26T02:40:42.227Z,24.80
2018-07-26T02:43:10.250Z,24.80
2018-07-26T02:45:37.033Z,24.80
2018-07-26T02:48:03.730Z,24.80
2018-07-26T02:50:30.529Z,24.80
2018-07-26T02:52:57.371Z,24.70
2018-07-26T02:55:24.185Z,24.70
2018-07-26T02:57:50.996Z,24.70
2018-07-26T03:00:17.778Z,24.70
2018-07-26T03:02:44.612Z,24.70
2018-07-26T03:05:11.520Z,24.70
2018-07-26T03:07:38.291Z,24.70
2018-07-26T03:10:05.045Z,24.60
2018-07-26T03:12:31.926Z,24.60
2018-07-26T03:14:59.098Z,24.60
2018-07-26T03:17:25.928Z,24.60
2018-07-26T03:19:52.717Z,24.60
2018-07-26T03:22:19.489Z,24.60
2018-07-26T03:24:46.251Z,24.60
2018-07-26T03:27:12.947Z,24.60
2018-07-26T03:29:39.660Z,24.50
2018-07-26T03:32:06.580Z,24.50
2018-07-26T03:34:33.688Z,24.50
2018-07-26T03:37:00.787Z,24.50
2018-07-26T03:39:27.560Z,24.50
2018-07-26T03:41:54.496Z,24.50
2018-07-26T03:44:21.315Z,24.70
2018-07-26T03:46:48.059Z,24.40
2018-07-26T03:49:23.172Z,24.40
2018-07-26T03:52:06.259Z,24.40
2018-07-26T03:54:37.389Z,24.40
2018-07-26T03:57:04.750Z,24.40
2018-07-26T03:59:31.560Z,24.30
2018-07-26T04:01:58.336Z,24.30
2018-07-26T04:04:25.801Z,24.30
2018-07-26T04:06:52.630Z,24.30
2018-07-26T04:09:20.292Z,24.30
2018-07-26T04:11:47.488Z,24.20
2018-07-26T04:14:15.145Z,24.20
2018-07-26T04:16:42.981Z,24.20
2018-07-26T04:19:10.746Z,24.20
2018-07-26T04:21:37.942Z,24.20
2018-07-26T04:24:05.238Z,24.20
2018-07-26T04:26:32.386Z,24.20
2018-07-26T04:29:00.330Z,24.00
2018-07-26T04:31:27.750Z,24.10
2018-07-26T04:33:54.572Z,24.20
2018-07-26T04:36:21.522Z,24.10
2018-07-26T04:38:48.322Z,24.10
2018-07-26T04:41:15.072Z,24.30
2018-07-26T04:43:42.736Z,24.10
2018-07-26T04:46:10.538Z,24.10
2018-07-26T04:48:38.106Z,24.10
2018-07-26T04:51:05.875Z,24.10
2018-07-26T04:53:34.834Z,24.00
2018-07-26T04:56:01.896Z,24.00
2018-07-26T04:58:29.226Z,24.00
2018-07-26T05:00:56.318Z,24.00
2018-07-26T05:03:23.359Z,24.00
2018-07-26T05:08:18.699Z,24.00
2018-07-26T05:10:49.064Z,23.90
2018-07-26T05:13:17.958Z,23.90
2018-07-26T05:15:44.839Z,23.90
2018-07-26T05:18:22.716Z,23.90
2018-07-26T05:20:49.829Z,23.90
2018-07-26T05:23:16.999Z,23.90
2018-07-26T05:25:44.586Z,23.50
2018-07-26T05:28:11.486Z,23.90
2018-07-26T05:30:38.357Z,23.60
2018-07-26T05:33:05.480Z,23.90
2018-07-26T05:35:32.288Z,23.80
2018-07-26T05:37:59.634Z,23.80
2018-07-26T05:40:27.629Z,23.90
2018-07-26T05:42:55.002Z,23.80
2018-07-26T05:45:21.921Z,23.80
2018-07-26T05:47:48.997Z,23.80
2018-07-26T05:50:15.818Z,23.80
2018-07-26T05:52:42.863Z,23.80
2018-07-26T05:55:10.455Z,23.80
2018-07-26T05:57:37.851Z,23.90
2018-07-26T06:00:04.850Z,23.90
2018-07-26T06:02:32.424Z,23.90
2018-07-26T06:05:00.008Z,23.90
2018-07-26T06:07:27.027Z,23.90
2018-07-26T06:09:53.878Z,23.90
2018-07-26T06:12:23.423Z,23.90
2018-07-26T06:14:50.640Z,23.90
2018-07-26T06:17:17.538Z,23.90
2018-07-26T06:19:44.338Z,24.00
2018-07-26T06:22:11.178Z,24.00
2018-07-26T06:24:38.645Z,24.00
2018-07-26T06:27:05.755Z,24.00
2018-07-26T06:32:00.047Z,24.10
2018-07-26T06:34:26.833Z,24.10
2018-07-26T06:36:53.686Z,24.10
2018-07-26T06:39:20.463Z,24.10
2018-07-26T06:41:47.420Z,24.20
2018-07-26T06:44:14.834Z,24.20
2018-07-26T06:46:41.782Z,24.20
2018-07-26T06:49:08.992Z,24.30
2018-07-26T06:54:25.592Z,24.30
2018-07-26T06:56:52.602Z,24.40
2018-07-26T06:59:19.616Z,24.40
2018-07-26T07:04:13.810Z,24.40
2018-07-26T07:06:41.508Z,24.50
2018-07-26T07:09:08.705Z,24.10
2018-07-26T07:11:35.886Z,24.60
2018-07-26T07:14:03.442Z,24.60
2018-07-26T07:16:30.869Z,24.60
2018-07-26T07:18:57.708Z,24.70
2018-07-26T07:21:24.772Z,24.70
2018-07-26T07:23:53.638Z,24.80
2018-07-26T07:26:21.368Z,24.80
2018-07-26T07:28:48.878Z,24.80
2018-07-26T07:31:15.863Z,24.90
2018-07-26T07:33:42.955Z,24.90
2018-07-26T07:36:09.898Z,25.00
2018-07-26T07:38:37.846Z,25.00
2018-07-26T07:41:06.320Z,25.00
2018-07-26T07:43:33.743Z,25.10
2018-07-26T07:46:00.808Z,25.10
2018-07-26T07:48:27.981Z,25.20
2018-07-26T07:50:55.081Z,25.30
2018-07-26T07:53:21.929Z,25.30
2018-07-26T07:55:49.471Z,25.40
2018-07-26T07:58:17.133Z,25.40
2018-07-26T08:00:44.035Z,25.50
2018-07-26T08:03:10.925Z,25.50
2018-07-26T08:05:37.669Z,25.60
2018-07-26T08:08:04.569Z,25.70
2018-07-26T08:10:31.456Z,25.70
2018-07-26T08:12:58.567Z,25.70
2018-07-26T08:15:25.464Z,25.80
2018-07-26T08:17:53.379Z,25.90
2018-07-26T08:20:20.538Z,26.00
2018-07-26T08:22:48.446Z,26.00
2018-07-26T08:25:15.400Z,26.10
2018-07-26T08:27:42.992Z,26.10
2018-07-26T08:30:10.752Z,26.20
2018-07-26T08:32:37.676Z,26.30
2018-07-26T08:35:04.726Z,26.30
2018-07-26T08:37:31.510Z,26.40
2018-07-26T08:39:59.267Z,26.50
2018-07-26T08:42:26.274Z,26.50
2018-07-26T08:44:53.160Z,26.60
2018-07-26T08:49:48.485Z,26.80
2018-07-26T08:52:15.643Z,26.80
2018-07-26T08:54:42.521Z,26.90
2018-07-26T08:57:09.433Z,26.90
2018-07-26T08:59:36.354Z,27.00
2018-07-26T09:02:03.310Z,27.10
2018-07-26T09:04:30.065Z,27.20
2018-07-26T09:06:56.878Z,27.20
2018-07-26T09:09:23.894Z,27.30
2018-07-26T09:11:50.790Z,27.40
2018-07-26T09:14:17.710Z,27.50
2018-07-26T09:16:44.459Z,27.50
2018-07-26T09:19:11.327Z,27.60
2018-07-26T09:21:38.181Z,27.60
2018-07-26T09:24:05.097Z,27.70
2018-07-26T09:26:31.882Z,27.80
2018-07-26T09:28:58.934Z,27.90
2018-07-26T09:31:26.075Z,28.00
2018-07-26T09:33:52.874Z,28.00
2018-07-26T09:36:19.959Z,28.10
2018-07-26T09:38:46.941Z,28.20
2018-07-26T09:41:14.389Z,28.20
2018-07-26T09:46:08.855Z,28.40
2018-07-26T09:48:35.829Z,28.40
2018-07-26T09:51:02.809Z,28.50
2018-07-26T09:53:29.725Z,28.60
2018-07-26T09:55:56.699Z,28.70
2018-07-26T10:00:56.321Z,28.80
2018-07-26T10:03:23.331Z,28.90
2018-07-26T10:05:50.116Z,28.90
2018-07-26T10:08:16.865Z,29.00
2018-07-26T10:10:45.234Z,29.10
2018-07-26T10:13:12.230Z,29.20
2018-07-26T10:15:39.115Z,29.20
2018-07-26T10:18:06.139Z,29.30
2018-07-26T10:20:33.051Z,29.40
2018-07-26T10:22:59.793Z,29.40
2018-07-26T10:25:26.631Z,29.60
2018-07-26T10:27:53.460Z,29.60
2018-07-26T10:30:20.251Z,29.70
2018-07-26T10:32:47.045Z,29.80
2018-07-26T10:35:14.058Z,29.80
2018-07-26T10:37:40.858Z,29.90
2018-07-26T10:40:07.747Z,30.00
2018-07-26T10:42:34.497Z,30.00
2018-07-26T10:45:01.361Z,30.10
2018-07-26T10:47:28.186Z,30.20
2018-07-26T10:49:54.987Z,30.20
2018-07-26T10:54:49.586Z,30.40
2018-07-26T10:57:16.420Z,30.40
2018-07-26T10:59:43.460Z,30.50
2018-07-26T11:02:11.195Z,30.50
2018-07-26T11:04:38.432Z,30.60
2018-07-26T11:07:05.612Z,30.70
2018-07-26T11:09:32.495Z,30.80
2018-07-26T11:11:59.408Z,30.80
2018-07-26T11:14:26.194Z,30.90
2018-07-26T11:19:20.550Z,31.00
2018-07-26T11:21:47.435Z,31.10
2018-07-26T11:24:14.412Z,31.10
2018-07-26T11:26:41.321Z,31.20
2018-07-26T11:29:08.064Z,31.20
2018-07-26T11:31:34.807Z,31.30
2018-07-26T11:34:01.541Z,31.30
2018-07-26T11:36:28.293Z,31.40
2018-07-26T11:38:55.079Z,31.50
2018-07-26T11:41:21.859Z,31.50
2018-07-26T11:43:48.637Z,31.60
2018-07-26T11:46:15.504Z,31.60
2018-07-26T11:48:42.547Z,31.70
2018-07-26T11:51:09.559Z,31.70
2018-07-26T11:53:36.425Z,31.80
2018-07-26T11:56:03.203Z,31.80
2018-07-26T11:58:30.018Z,31.90
2018-07-26T12:03:47.883Z,32.00
2018-07-26T12:06:15.115Z,32.00
2018-07-26T12:08:42.045Z,32.10
2018-07-26T12:11:08.865Z,32.20
2018-07-26T12:13:35.635Z,32.10
2018-07-26T12:16:04.729Z,31.90
2018-07-26T12:18:31.951Z,32.30
2018-07-26T12:20:58.824Z,32.40
2018-07-26T12:23:25.954Z,32.40
2018-07-26T12:25:52.748Z,32.50
2018-07-26T12:28:20.336Z,32.50
2018-07-26T12:30:47.270Z,32.50
2018-07-26T12:33:14.352Z,32.60
2018-07-26T12:35:41.282Z,32.60
2018-07-26T12:38:08.257Z,32.70
2018-07-26T12:40:35.756Z,32.70
2018-07-26T12:43:03.518Z,32.80
2018-07-26T12:45:30.292Z,32.80
2018-07-26T12:47:57.120Z,32.80
2018-07-26T12:50:24.071Z,32.90
2018-07-26T12:52:51.005Z,33.00
2018-07-26T12:55:17.915Z,33.00
2018-07-26T12:57:44.739Z,33.00
2018-07-26T13:00:11.562Z,33.00
2018-07-26T13:05:05.860Z,33.10
2018-07-26T13:07:32.575Z,33.20
2018-07-26T13:09:59.363Z,33.20
2018-07-26T13:12:26.209Z,33.30
2018-07-26T13:14:53.014Z,33.30
2018-07-26T13:17:20.041Z,33.30
2018-07-26T13:19:46.822Z,33.40
2018-07-26T13:22:13.713Z,33.40
2018-07-26T13:24:40.632Z,33.40
2018-07-26T13:27:07.547Z,33.50
2018-07-26T13:29:34.439Z,33.50
2018-07-26T13:32:01.238Z,33.50
2018-07-26T13:34:28.062Z,33.60
2018-07-26T13:36:54.907Z,33.60
2018-07-26T13:39:21.835Z,33.60
2018-07-26T13:41:48.735Z,33.70
2018-07-26T13:44:15.628Z,33.70
2018-07-26T13:46:42.429Z,33.70
2018-07-26T13:49:09.441Z,33.80
2018-07-26T13:51:36.416Z,33.80
2018-07-26T13:54:03.357Z,33.80
2018-07-26T13:56:30.200Z,33.80
2018-07-26T13:58:57.178Z,33.90
2018-07-26T14:01:23.987Z,33.90
2018-07-26T14:03:50.814Z,33.90
2018-07-26T14:06:17.802Z,34.00
2018-07-26T14:08:44.624Z,34.00
2018-07-26T14:11:11.405Z,34.00
2018-07-26T14:13:38.315Z,34.00
2018-07-26T14:16:05.352Z,34.00
2018-07-26T14:18:32.135Z,34.10
2018-07-26T14:20:58.960Z,34.30
2018-07-26T14:23:31.499Z,34.20
2018-07-26T14:25:58.374Z,34.20
2018-07-26T14:28:25.228Z,34.20
2018-07-26T14:30:52.135Z,34.20
2018-07-26T14:33:18.964Z,34.30
2018-07-26T14:35:45.928Z,34.30
2018-07-26T14:38:12.811Z,34.30
2018-07-26T14:43:06.884Z,34.40
2018-07-26T14:45:33.646Z,34.40
2018-07-26T14:48:00.450Z,34.40
2018-07-26T14:50:27.321Z,34.50
2018-07-26T14:52:54.176Z,34.40
2018-07-26T14:55:20.948Z,34.50
2018-07-26T14:57:47.810Z,34.50
2018-07-26T15:00:14.718Z,34.50
2018-07-26T15:02:42.338Z,34.50
2018-07-26T15:05:09.203Z,34.50
2018-07-26T15:07:35.941Z,34.50
2018-07-26T15:10:03.121Z,34.60
2018-07-26T15:12:29.904Z,34.60
2018-07-26T15:14:56.737Z,34.60
2018-07-26T15:17:23.555Z,34.60
2018-07-26T15:22:17.712Z,34.60
2018-07-26T15:24:44.507Z,34.60
2018-07-26T15:27:11.361Z,34.60
2018-07-26T15:29:38.181Z,34.60
2018-07-26T15:32:05.674Z,34.60
2018-07-26T15:34:32.761Z,34.60
2018-07-26T15:36:59.687Z,34.60
2018-07-26T15:39:26.445Z,34.70
2018-07-26T15:41:53.235Z,34.70
2018-07-26T15:44:20.567Z,34.70
2018-07-26T15:46:47.516Z,34.70
2018-07-26T15:49:14.519Z,34.70
2018-07-26T15:51:41.462Z,34.70
2018-07-26T15:54:08.302Z,34.80
2018-07-26T15:56:35.202Z,34.80
2018-07-26T16:06:24.089Z,34.90
2018-07-26T16:08:51.147Z,34.90
2018-07-26T16:11:18.076Z,34.90
2018-07-26T16:13:45.105Z,34.90
2018-07-26T16:16:11.936Z,34.90
2018-07-26T16:18:39.455Z,35.00
2018-07-26T16:21:07.388Z,35.00
2018-07-26T16:23:34.221Z,35.00
2018-07-26T16:26:01.133Z,35.10
2018-07-26T16:28:28.072Z,35.10
2018-07-26T16:30:55.455Z,34.80
2018-07-26T16:33:22.321Z,35.10
2018-07-26T16:35:49.163Z,35.20
2018-07-26T16:38:15.907Z,35.20
2018-07-26T16:40:42.677Z,35.20
2018-07-26T16:43:09.548Z,35.20
2018-07-26T16:45:36.674Z,35.30
2018-07-26T16:48:03.453Z,35.30
2018-07-26T16:50:31.231Z,35.30
2018-07-26T16:52:58.064Z,35.30
2018-07-26T17:00:19.439Z,35.40
2018-07-26T17:02:46.293Z,35.40
2018-07-26T17:05:13.028Z,35.40
2018-07-26T17:10:07.563Z,35.40
2018-07-26T17:12:34.422Z,35.40
2018-07-26T17:15:01.207Z,35.40
2018-07-26T17:17:27.949Z,35.40
2018-07-26T17:19:54.850Z,35.40
2018-07-26T17:22:21.781Z,35.40
2018-07-26T17:24:48.566Z,35.40
2018-07-26T17:27:15.371Z,35.40
2018-07-26T17:29:42.212Z,35.40
2018-07-26T17:32:08.993Z,35.40
2018-07-26T17:34:35.882Z,35.40
2018-07-26T17:37:03.214Z,35.40
2018-07-26T17:39:30.060Z,35.40
2018-07-26T17:41:56.955Z,35.40
2018-07-26T17:44:23.857Z,35.40
2018-07-26T17:46:50.884Z,35.40
2018-07-26T17:49:17.953Z,35.40
2018-07-26T17:51:44.943Z,35.40
2018-07-26T17:54:11.718Z,35.40
2018-07-26T17:56:38.545Z,35.40
2018-07-26T17:59:05.328Z,35.40
2018-07-26T18:01:32.583Z,35.40
2018-07-26T18:03:59.574Z,35.40
2018-07-26T18:06:26.494Z,35.20
2018-07-26T18:08:53.310Z,35.40
2018-07-26T18:11:20.427Z,35.40
2018-07-26T18:13:47.291Z,35.30
2018-07-26T18:16:14.226Z,35.30
2018-07-26T18:18:40.978Z,35.30
2018-07-26T18:23:35.674Z,35.30
2018-07-26T18:26:02.616Z,35.30
2018-07-26T18:28:29.570Z,35.20
2018-07-26T18:30:56.685Z,35.20
2018-07-26T18:35:51.442Z,35.10
2018-07-26T18:38:18.981Z,35.10
2018-07-26T18:40:46.284Z,35.10
2018-07-26T18:43:13.322Z,35.00
2018-07-26T18:45:40.450Z,35.00
2018-07-26T18:48:07.245Z,35.00
2018-07-26T18:50:34.009Z,34.90
2018-07-26T18:53:01.610Z,34.90
2018-07-26T18:55:28.959Z,34.90
2018-07-26T18:57:55.780Z,34.90
2018-07-26T19:02:50.008Z,34.80
2018-07-26T19:05:16.913Z,34.70
2018-07-26T19:15:06.151Z,34.60
2018-07-26T19:17:32.951Z,34.60
2018-07-26T19:19:59.657Z,34.50
2018-07-26T19:22:26.457Z,34.50
2018-07-26T19:24:53.916Z,34.40
2018-07-26T19:27:20.801Z,34.40
2018-07-26T19:29:47.494Z,34.30
2018-07-26T19:32:14.398Z,34.30
2018-07-26T19:34:42.408Z,34.20
2018-07-26T19:37:10.253Z,34.20
2018-07-26T19:39:37.069Z,34.20
2018-07-26T19:42:03.923Z,34.10
2018-07-26T19:44:30.712Z,34.10
2018-07-26T19:46:57.608Z,34.00
2018-07-26T19:49:24.460Z,33.90
2018-07-26T19:51:51.858Z,33.90
2018-07-26T19:54:18.694Z,33.90
2018-07-26T19:56:45.388Z,33.90
2018-07-26T19:59:12.959Z,33.80
2018-07-26T20:01:39.914Z,33.70
2018-07-26T20:04:06.864Z,33.70
2018-07-26T20:06:33.712Z,33.60
2018-07-26T20:09:00.588Z,33.60
2018-07-26T20:11:28.363Z,33.50
2018-07-26T20:13:55.943Z,33.50
2018-07-26T20:16:22.775Z,33.40
2018-07-26T20:18:49.647Z,33.40
2018-07-26T20:21:16.580Z,33.30
2018-07-26T20:23:43.538Z,33.30
2018-07-26T20:26:10.384Z,33.20
2018-07-26T20:28:37.454Z,33.20
2018-07-26T20:31:04.961Z,33.10
2018-07-26T20:33:32.570Z,33.00
2018-07-26T20:35:59.333Z,33.00
2018-07-26T20:38:26.590Z,32.90
2018-07-26T20:40:53.515Z,32.90
2018-07-26T20:43:20.671Z,32.90
2018-07-26T20:45:48.067Z,32.80
2018-07-26T20:48:14.918Z,32.70
2018-07-26T20:50:41.766Z,32.70
2018-07-26T20:53:08.608Z,32.60
2018-07-26T20:55:35.441Z,32.60
2018-07-26T20:58:02.316Z,32.50
2018-07-26T21:00:29.138Z,32.50
2018-07-26T21:02:56.016Z,32.40
2018-07-26T21:05:23.000Z,32.30
2018-07-26T21:07:49.752Z,32.30
2018-07-26T21:10:16.674Z,32.30
2018-07-26T21:12:43.402Z,32.20
2018-07-26T21:15:10.311Z,32.10
2018-07-26T21:17:37.107Z,32.10
2018-07-26T21:20:03.828Z,32.00
2018-07-26T21:22:30.710Z,32.00
2018-07-26T21:24:57.533Z,31.90
2018-07-26T21:27:24.359Z,31.90
2018-07-26T21:29:51.476Z,31.80
2018-07-26T21:32:18.304Z,31.80
2018-07-26T21:34:45.102Z,31.70
2018-07-26T21:37:12.017Z,31.60
2018-07-26T21:39:38.855Z,31.60
2018-07-26T21:42:05.727Z,31.50
2018-07-26T21:44:32.592Z,31.50
2018-07-26T21:46:59.437Z,31.40
2018-07-26T21:49:26.449Z,31.40
2018-07-26T21:51:54.461Z,31.30
2018-07-26T21:54:21.483Z,31.30
2018-07-26T21:56:48.425Z,31.20
2018-07-26T21:59:15.226Z,31.10
2018-07-26T22:01:42.019Z,31.10
2018-07-26T22:04:08.943Z,31.00
2018-07-26T22:06:35.826Z,31.00
2018-07-26T22:09:02.606Z,31.00
2018-07-26T22:11:29.359Z,30.90
2018-07-26T22:13:56.123Z,30.80
2018-07-26T22:16:22.861Z,30.80
2018-07-26T22:18:49.688Z,30.70
2018-07-26T22:21:16.544Z,30.70
2018-07-26T22:23:43.462Z,30.60
2018-07-26T22:26:10.209Z,30.60
2018-07-26T22:28:36.971Z,30.60
2018-07-26T22:31:03.741Z,30.50
2018-07-26T22:33:30.561Z,30.40
2018-07-26T22:35:57.347Z,30.40
2018-07-26T22:38:24.108Z,30.30
2018-07-26T22:40:50.807Z,30.30
2018-07-26T22:43:17.589Z,30.20
2018-07-26T22:45:44.418Z,30.20
2018-07-26T22:48:11.223Z,30.20
2018-07-26T22:50:38.385Z,30.10
2018-07-26T22:53:05.300Z,30.00
2018-07-26T22:55:32.092Z,30.00
2018-07-26T22:57:59.584Z,29.90
2018-07-26T23:00:26.373Z,29.90
2018-07-26T23:02:53.212Z,29.90
2018-07-26T23:05:19.960Z,29.80
2018-07-26T23:07:46.663Z,29.80
2018-07-26T23:10:13.406Z,29.70
2018-07-26T23:12:40.266Z,29.70
2018-07-26T23:15:07.309Z,29.70
2018-07-26T23:17:34.065Z,29.60
2018-07-26T23:20:00.881Z,29.50
2018-07-26T23:22:27.785Z,29.50
2018-07-26T23:24:54.682Z,29.40
2018-07-26T23:27:21.473Z,29.40
2018-07-26T23:29:48.253Z,29.40
2018-07-26T23:32:15.052Z,29.30
2018-07-26T23:34:41.847Z,29.20
2018-07-26T23:37:08.789Z,29.20
2018-07-26T23:39:35.581Z,29.20
2018-07-26T23:42:02.359Z,29.20
2018-07-26T23:44:29.200Z,29.10
2018-07-26T23:46:56.000Z,29.10
2018-07-26T23:49:22.700Z,29.00
2018-07-26T23:51:49.529Z,29.00
2018-07-26T23:54:16.260Z,28.90
2018-07-26T23:56:43.054Z,28.90
2018-07-26T23:59:09.859Z,28.80
